Noatak, AK

5:06 AM AKDT on October 20, 2014 (GMT -0800)
Wien Memorial | Change Station
CLOSE
Current Station
Airport
Location: Kotzebue,
Elevation: 16 ft
Nearby Weather Stations

Elev 16 ft 66.88 °N, 162.60 °W | Updated 1 hour ago

Overcast
Overcast
27 °F
Feels Like 20 °F
N
6
Wind Variable Wind from NNE

Today
High -- | Low -- °F
--% Chance of Precip.
Yesterday
High -- | Low -- °F
Precip. -- in
10:12 AM 6:59 PM
Waning Crescent, 11% visible
Pressure 29.43 in
Visibility 10.0 miles
Clouds Overcast 8500 ft
Windchill 20 °F
Dew Point 20 °F
Humidity 75%
Rainfall 0.00 in
Snow Depth Not available.
UV 0 out of 12
Pollen Not available.
Air Quality Not available.
Flu Activity Sporadic
METAR PAOT 201153Z 02005KT 10SM OVC085 M03/M07 A2943 RMK AO2 SLP964 T10281067 11022 21033 58008

More Conditions Fewer Conditions

Pressure 29.43 in
Visibility 10.0 miles
Clouds Overcast 8500 ft
Windchill 20 °F
Dew Point 20 °F
Humidity 75%
Rainfall 0.00 in
Snow Depth Not available.
UV 0 out of 12
Pollen Not available.
Air Quality Not available.
Flu Activity Sporadic
METAR PAOT 201153Z 02005KT 10SM OVC085 M03/M07 A2943 RMK AO2 SLP964 T10281067 11022 21033 58008

More Conditions Fewer Conditions

10-Day Weather Forecast

Almanac

Astronomy

Oct. 20, 2014 Rise Set
Actual Time 10:12 AM AKDT 6:59 PM AKDT
Civil Twilight 9:15 AM AKDT 7:56 PM AKDT
Nautical Twilight 8:12 AM AKDT 8:59 PM AKDT
Astronomical Twilight 7:09 AM AKDT 10:02 PM AKDT
Moon 5:56 AM AKDT 6:32 PM AKDT
Length of Visible Light 10h 41m
Length of Day
8h 47m
Waning Crescent, 11% of the Moon is Illuminated
Today
Waning Crescent
Oct 23
New
Oct 30
First Quarter
Nov 6
Full
Nov 14
Last Quarter

Today's Extremes

State Highs State Lows

Community

WunderPhotos

Upload Photos

1,763,363 photos uploaded!

Nearby

Snow Depth

Station Depth Elevation
Rocky Point 2 in 500 ft
Gobblers Knob 2 in 2030 ft
Coldfoot 4 in 1040 ft
Atigun Pass 12 in 4800 ft
Imnaviat Creek 21 in 3050 ft

Earthquake Activity

City Distance Mag. Time & Date
No recent earthquake activity has been reported nearby.
Minimum magnitude displayed is 2.5.

Coastal Water Temperatures

Place Temperature
No Stations Reporting

Nearby Weather Stations